sensor_id;sensor_type;location;lat;lon;timestamp;pressure;altitude;pressure_sealevel;temperature;humidity
54822;BME280;41299;43.546;16.426;2022-11-15T00:01:42;102069.22;;;13.02;100.00
54822;BME280;41299;43.546;16.426;2022-11-15T00:04:10;102064.97;;;13.05;100.00
54822;BME280;41299;43.546;16.426;2022-11-15T00:06:37;102077.09;;;13.08;100.00
54822;BME280;41299;43.546;16.426;2022-11-15T00:14:55;102081.25;;;12.98;100.00
54822;BME280;41299;43.546;16.426;2022-11-15T00:17:48;102075.13;;;12.93;100.00
54822;BME280;41299;43.546;16.426;2022-11-15T00:20:19;102080.34;;;12.94;100.00
54822;BME280;41299;43.546;16.426;2022-11-15T00:22:52;102080.31;;;12.93;100.00
54822;BME280;41299;43.546;16.426;2022-11-15T00:25:18;102077.69;;;12.91;100.00
54822;BME280;41299;43.546;16.426;2022-11-15T00:27:43;102081.03;;;12.84;100.00
54822;BME280;41299;43.546;16.426;2022-11-15T00:30:10;102084.59;;;12.91;100.00
54822;BME280;41299;43.546;16.426;2022-11-15T00:32:38;102088.78;;;12.84;100.00
54822;BME280;41299;43.546;16.426;2022-11-15T00:35:12;102092.25;;;12.84;100.00
54822;BME280;41299;43.546;16.426;2022-11-15T00:37:43;102094.03;;;12.89;100.00
54822;BME280;41299;43.546;16.426;2022-11-15T00:40:09;102090.53;;;12.85;100.00
54822;BME280;41299;43.546;16.426;2022-11-15T00:42:59;102092.25;;;12.84;100.00
54822;BME280;41299;43.546;16.426;2022-11-15T00:45:25;102099.06;;;12.79;100.00
54822;BME280;41299;43.546;16.426;2022-11-15T00:50:31;102086.91;;;12.75;100.00
54822;BME280;41299;43.546;16.426;2022-11-15T00:52:57;102085.28;;;12.80;100.00
54822;BME280;41299;43.546;16.426;2022-11-15T00:55:22;102084.50;;;12.86;100.00
54822;BME280;41299;43.546;16.426;2022-11-15T00:57:50;102081.91;;;12.84;100.00
54822;BME280;41299;43.546;16.426;2022-11-15T01:00:27;102082.72;;;12.83;100.00
54822;BME280;41299;43.546;16.426;2022-11-15T01:02:52;102076.50;;;12.74;100.00
54822;BME280;41299;43.546;16.426;2022-11-15T01:05:17;102081.72;;;12.75;100.00
54822;BME280;41299;43.546;16.426;2022-11-15T01:07:43;102087.00;;;12.81;100.00
54822;BME280;41299;43.546;16.426;2022-11-15T01:10:08;102082.69;;;12.80;100.00
54822;BME280;41299;43.546;16.426;2022-11-15T01:15:40;102075.78;;;12.79;100.00
54822;BME280;41299;43.546;16.426;2022-11-15T01:18:06;102072.25;;;12.77;100.00
54822;BME280;41299;43.546;16.426;2022-11-15T01:20:31;102070.59;;;12.81;100.00
54822;BME280;41299;43.546;16.426;2022-11-15T01:22:57;102066.41;;;12.88;100.00
54822;BME280;41299;43.546;16.426;2022-11-15T01:25:22;102062.94;;;12.85;100.00
54822;BME280;41299;43.546;16.426;2022-11-15T01:30:41;102061.19;;;12.84;100.00
54822;BME280;41299;43.546;16.426;2022-11-15T01:33:12;102055.13;;;12.84;100.00
54822;BME280;41299;43.546;16.426;2022-11-15T01:35:40;102056.91;;;12.87;100.00
54822;BME280;41299;43.546;16.426;2022-11-15T01:38:05;102060.34;;;12.85;100.00
54822;BME280;41299;43.546;16.426;2022-11-15T01:40:30;102052.53;;;12.84;100.00
54822;BME280;41299;43.546;16.426;2022-11-15T01:42:58;102056.00;;;12.84;100.00
54822;BME280;41299;43.546;16.426;2022-11-15T01:45:23;102049.97;;;12.85;100.00
54822;BME280;41299;43.546;16.426;2022-11-15T01:47:51;102056.06;;;12.88;100.00
54822;BME280;41299;43.546;16.426;2022-11-15T01:50:25;102060.38;;;12.89;100.00
54822;BME280;41299;43.546;16.426;2022-11-15T01:53:17;102058.56;;;12.83;100.00
54822;BME280;41299;43.546;16.426;2022-11-15T01:55:42;102051.78;;;12.91;100.00
54822;BME280;41299;43.546;16.426;2022-11-15T01:58:17;102054.44;;;12.94;100.00
54822;BME280;41299;43.546;16.426;2022-11-15T02:00:52;102055.28;;;12.93;100.00
54822;BME280;41299;43.546;16.426;2022-11-15T02:03:21;102052.56;;;12.85;100.00
54822;BME280;41299;43.546;16.426;2022-11-15T02:05:48;102051.72;;;12.87;100.00
54822;BME280;41299;43.546;16.426;2022-11-15T02:08:14;102045.59;;;12.81;100.00
54822;BME280;41299;43.546;16.426;2022-11-15T02:11:15;102038.66;;;12.79;100.00
54822;BME280;41299;43.546;16.426;2022-11-15T02:13:40;102039.59;;;12.84;100.00
54822;BME280;41299;43.546;16.426;2022-11-15T02:16:38;102037.03;;;12.85;100.00
54822;BME280;41299;43.546;16.426;2022-11-15T02:32:24;102046.84;;;12.54;100.00
54822;BME280;41299;43.546;16.426;2022-11-15T02:40:38;102032.84;;;12.44;100.00
54822;BME280;41299;43.546;16.426;2022-11-15T02:43:11;102032.13;;;12.50;100.00
54822;BME280;41299;43.546;16.426;2022-11-15T02:45:58;102026.09;;;12.51;100.00
54822;BME280;41299;43.546;16.426;2022-11-15T02:48:32;102025.13;;;12.46;100.00
54822;BME280;41299;43.546;16.426;2022-11-15T02:50:58;102024.16;;;12.41;100.00
54822;BME280;41299;43.546;16.426;2022-11-15T02:53:27;102021.56;;;12.39;100.00
54822;BME280;41299;43.546;16.426;2022-11-15T02:55:59;102019.75;;;12.35;100.00
54822;BME280;41299;43.546;16.426;2022-11-15T03:01:34;102015.34;;;12.29;100.00
54822;BME280;41299;43.546;16.426;2022-11-15T03:09:43;102006.38;;;12.12;100.00
54822;BME280;41299;43.546;16.426;2022-11-15T03:12:40;102009.81;;;12.12;100.00
54822;BME280;41299;43.546;16.426;2022-11-15T03:15:21;102010.47;;;12.02;100.00
54822;BME280;41299;43.546;16.426;2022-11-15T03:17:50;102015.75;;;12.07;100.00
54822;BME280;41299;43.546;16.426;2022-11-15T03:20:26;102014.16;;;12.12;100.00
54822;BME280;41299;43.546;16.426;2022-11-15T03:25:47;102010.63;;;11.68;100.00
54822;BME280;41299;43.546;16.426;2022-11-15T03:28:15;102014.16;;;11.72;100.00
54822;BME280;41299;43.546;16.426;2022-11-15T03:30:44;102004.56;;;11.66;100.00
54822;BME280;41299;43.546;16.426;2022-11-15T03:33:12;102007.94;;;11.63;100.00
54822;BME280;41299;43.546;16.426;2022-11-15T03:35:44;102014.94;;;11.68;100.00
54822;BME280;41299;43.546;16.426;2022-11-15T03:38:29;102014.91;;;11.66;100.00
54822;BME280;41299;43.546;16.426;2022-11-15T03:41:07;102019.22;;;11.67;100.00
54822;BME280;41299;43.546;16.426;2022-11-15T03:46:32;102013.56;;;11.45;100.00
54822;BME280;41299;43.546;16.426;2022-11-15T03:49:10;102014.59;;;11.52;100.00
54822;BME280;41299;43.546;16.426;2022-11-15T03:51:38;102012.69;;;11.43;100.00
54822;BME280;41299;43.546;16.426;2022-11-15T03:54:04;102013.56;;;11.45;100.00
54822;BME280;41299;43.546;16.426;2022-11-15T03:56:38;102013.72;;;11.51;100.00
54822;BME280;41299;43.546;16.426;2022-11-15T04:01:55;102010.44;;;11.59;100.00
54822;BME280;41299;43.546;16.426;2022-11-15T04:04:20;102012.84;;;11.51;100.00
54822;BME280;41299;43.546;16.426;2022-11-15T04:06:46;102008.53;;;11.51;100.00
54822;BME280;41299;43.546;16.426;2022-11-15T04:09:11;102005.91;;;11.48;100.00
54822;BME280;41299;43.546;16.426;2022-11-15T04:11:36;102003.34;;;11.48;100.00
54822;BME280;41299;43.546;16.426;2022-11-15T04:14:01;101999.91;;;11.49;100.00
54822;BME280;41299;43.546;16.426;2022-11-15T04:16:27;102000.78;;;11.50;100.00
54822;BME280;41299;43.546;16.426;2022-11-15T04:18:52;102003.38;;;11.50;100.00
54822;BME280;41299;43.546;16.426;2022-11-15T04:21:37;101999.97;;;11.52;100.00
54822;BME280;41299;43.546;16.426;2022-11-15T04:24:21;101993.13;;;11.55;100.00
54822;BME280;41299;43.546;16.426;2022-11-15T04:26:46;101990.63;;;11.59;100.00
54822;BME280;41299;43.546;16.426;2022-11-15T04:29:12;101995.88;;;11.62;100.00
54822;BME280;41299;43.546;16.426;2022-11-15T04:32:12;101993.34;;;11.64;100.00
54822;BME280;41299;43.546;16.426;2022-11-15T04:34:38;101983.94;;;11.68;100.00
54822;BME280;41299;43.546;16.426;2022-11-15T04:37:03;101994.28;;;11.68;100.00
54822;BME280;41299;43.546;16.426;2022-11-15T04:39:37;101996.00;;;11.69;100.00
54822;BME280;41299;43.546;16.426;2022-11-15T04:42:03;101994.28;;;11.69;100.00
54822;BME280;41299;43.546;16.426;2022-11-15T04:44:28;101989.16;;;11.71;100.00
54822;BME280;41299;43.546;16.426;2022-11-15T04:46:53;101982.34;;;11.74;100.00
54822;BME280;41299;43.546;16.426;2022-11-15T04:49:19;101986.66;;;11.74;100.00
54822;BME280;41299;43.546;16.426;2022-11-15T04:51:44;101980.59;;;11.73;100.00
54822;BME280;41299;43.546;16.426;2022-11-15T04:54:09;101979.75;;;11.74;100.00
54822;BME280;41299;43.546;16.426;2022-11-15T04:56:35;101985.88;;;11.79;100.00
54822;BME280;41299;43.546;16.426;2022-11-15T04:59:00;101979.88;;;11.81;100.00
54822;BME280;41299;43.546;16.426;2022-11-15T05:01:25;101975.63;;;11.83;100.00
54822;BME280;41299;43.546;16.426;2022-11-15T05:03:50;101972.97;;;11.79;100.00
54822;BME280;41299;43.546;16.426;2022-11-15T05:06:34;101971.06;;;11.71;100.00
54822;BME280;41299;43.546;16.426;2022-11-15T05:08:59;101972.06;;;11.77;100.00
54822;BME280;41299;43.546;16.426;2022-11-15T05:11:25;101976.34;;;11.75;100.00
54822;BME280;41299;43.546;16.426;2022-11-15T05:13:51;101976.19;;;11.69;100.00
54822;BME280;41299;43.546;16.426;2022-11-15T05:16:17;101977.97;;;11.70;100.00
54822;BME280;41299;43.546;16.426;2022-11-15T05:18:42;101978.94;;;11.75;100.00
54822;BME280;41299;43.546;16.426;2022-11-15T05:21:09;101974.69;;;11.81;100.00
54822;BME280;41299;43.546;16.426;2022-11-15T05:23:34;101974.78;;;11.84;100.00
54822;BME280;41299;43.546;16.426;2022-11-15T05:26:00;101980.03;;;11.87;100.00
54822;BME280;41299;43.546;16.426;2022-11-15T05:28:26;101985.28;;;11.91;100.00
54822;BME280;41299;43.546;16.426;2022-11-15T05:30:51;101987.91;;;11.93;100.00
54822;BME280;41299;43.546;16.426;2022-11-15T05:33:16;101981.88;;;11.94;100.00
54822;BME280;41299;43.546;16.426;2022-11-15T05:35:42;101990.66;;;12.02;100.00
54822;BME280;41299;43.546;16.426;2022-11-15T05:38:11;101992.34;;;12.00;100.00
54822;BME280;41299;43.546;16.426;2022-11-15T05:40:36;101996.63;;;12.00;100.00
54822;BME280;41299;43.546;16.426;2022-11-15T05:43:02;101989.69;;;11.96;100.00
54822;BME280;41299;43.546;16.426;2022-11-15T05:45:29;101996.38;;;11.87;100.00
54822;BME280;41299;43.546;16.426;2022-11-15T05:47:55;101988.50;;;11.81;100.00
54822;BME280;41299;43.546;16.426;2022-11-15T05:50:24;101991.09;;;11.81;100.00
54822;BME280;41299;43.546;16.426;2022-11-15T05:52:49;101984.22;;;11.83;100.00
54822;BME280;41299;43.546;16.426;2022-11-15T05:55:15;101990.09;;;11.74;100.00
54822;BME280;41299;43.546;16.426;2022-11-15T05:57:41;101978.72;;;11.66;100.00
54822;BME280;41299;43.546;16.426;2022-11-15T06:00:06;101986.41;;;11.63;100.00
54822;BME280;41299;43.546;16.426;2022-11-15T06:02:33;101991.47;;;11.58;100.00
54822;BME280;41299;43.546;16.426;2022-11-15T06:04:58;101993.16;;;11.56;100.00
54822;BME280;41299;43.546;16.426;2022-11-15T06:07:23;101993.84;;;11.47;100.00
54822;BME280;41299;43.546;16.426;2022-11-15T06:09:48;102006.88;;;11.54;100.00
54822;BME280;41299;43.546;16.426;2022-11-15T06:12:14;102002.81;;;11.65;100.00
54822;BME280;41299;43.546;16.426;2022-11-15T06:14:39;102003.69;;;11.65;100.00
54822;BME280;41299;43.546;16.426;2022-11-15T06:17:04;102008.97;;;11.70;100.00
54822;BME280;41299;43.546;16.426;2022-11-15T06:19:30;102010.78;;;11.76;100.00
54822;BME280;41299;43.546;16.426;2022-11-15T06:21:58;102013.25;;;11.70;100.00
54822;BME280;41299;43.546;16.426;2022-11-15T06:24:23;102006.94;;;11.57;100.00
54822;BME280;41299;43.546;16.426;2022-11-15T06:26:48;102008.63;;;11.55;100.00
54822;BME280;41299;43.546;16.426;2022-11-15T06:29:17;102013.84;;;11.58;100.00
54822;BME280;41299;43.546;16.426;2022-11-15T06:31:42;102012.09;;;11.57;100.00
54822;BME280;41299;43.546;16.426;2022-11-15T06:34:07;102020.00;;;11.63;100.00
54822;BME280;41299;43.546;16.426;2022-11-15T06:36:34;102011.44;;;11.64;100.00
54822;BME280;41299;43.546;16.426;2022-11-15T06:38:59;102023.66;;;11.73;100.00
54822;BME280;41299;43.546;16.426;2022-11-15T06:41:24;102017.81;;;11.82;100.00
54822;BME280;41299;43.546;16.426;2022-11-15T06:43:57;102015.25;;;11.83;100.00
54822;BME280;41299;43.546;16.426;2022-11-15T06:46:28;102028.28;;;11.89;100.00
54822;BME280;41299;43.546;16.426;2022-11-15T06:48:53;102029.38;;;11.99;100.00
54822;BME280;41299;43.546;16.426;2022-11-15T06:51:19;102027.88;;;12.09;100.00
54822;BME280;41299;43.546;16.426;2022-11-15T06:53:44;102032.25;;;12.12;100.00
54822;BME280;41299;43.546;16.426;2022-11-15T06:56:09;102032.31;;;12.16;100.00
54822;BME280;41299;43.546;16.426;2022-11-15T06:58:35;102033.25;;;12.20;100.00
54822;BME280;41299;43.546;16.426;2022-11-15T07:01:01;102028.22;;;12.28;100.00
54822;BME280;41299;43.546;16.426;2022-11-15T07:03:27;102026.63;;;12.33;100.00
54822;BME280;41299;43.546;16.426;2022-11-15T07:05:56;102030.09;;;12.35;100.00
54822;BME280;41299;43.546;16.426;2022-11-15T07:08:27;102033.66;;;12.42;100.00
54822;BME280;41299;43.546;16.426;2022-11-15T07:10:53;102026.84;;;12.45;100.00
54822;BME280;41299;43.546;16.426;2022-11-15T07:13:19;102036.25;;;12.42;100.00
54822;BME280;41299;43.546;16.426;2022-11-15T07:15:44;102038.06;;;12.46;100.00
54822;BME280;41299;43.546;16.426;2022-11-15T07:18:09;102047.59;;;12.49;100.00
54822;BME280;41299;43.546;16.426;2022-11-15T07:20:34;102046.78;;;12.51;100.00
54822;BME280;41299;43.546;16.426;2022-11-15T07:23:00;102050.34;;;12.56;100.00
54822;BME280;41299;43.546;16.426;2022-11-15T07:25:27;102050.34;;;12.56;100.00
54822;BME280;41299;43.546;16.426;2022-11-15T07:27:56;102048.78;;;12.66;100.00
54822;BME280;41299;43.546;16.426;2022-11-15T07:30:21;102049.78;;;12.73;100.00
54822;BME280;41299;43.546;16.426;2022-11-15T07:32:46;102054.13;;;12.77;100.00
54822;BME280;41299;43.546;16.426;2022-11-15T07:35:12;102049.88;;;12.81;100.00
54822;BME280;41299;43.546;16.426;2022-11-15T07:37:37;102052.50;;;12.82;100.00
54822;BME280;41299;43.546;16.426;2022-11-15T07:40:02;102056.13;;;12.91;100.00
54822;BME280;41299;43.546;16.426;2022-11-15T07:42:27;102056.25;;;12.98;100.00
54822;BME280;41299;43.546;16.426;2022-11-15T07:45:14;102046.81;;;13.02;100.00
54822;BME280;41299;43.546;16.426;2022-11-15T07:47:39;102042.69;;;13.14;100.00
54822;BME280;41299;43.546;16.426;2022-11-15T07:50:05;102039.31;;;13.21;100.00
54822;BME280;41299;43.546;16.426;2022-11-15T07:52:30;102039.41;;;13.27;100.00
54822;BME280;41299;43.546;16.426;2022-11-15T07:54:55;102041.25;;;13.34;100.00
54822;BME280;41299;43.546;16.426;2022-11-15T07:57:21;102038.84;;;13.45;100.00
54822;BME280;41299;43.546;16.426;2022-11-15T07:59:46;102041.56;;;13.53;100.00
54822;BME280;41299;43.546;16.426;2022-11-15T08:02:11;102039.91;;;13.60;100.00
54822;BME280;41299;43.546;16.426;2022-11-15T08:04:37;102039.19;;;13.70;100.00
54822;BME280;41299;43.546;16.426;2022-11-15T08:07:02;102034.91;;;13.74;100.00
54822;BME280;41299;43.546;16.426;2022-11-15T08:09:27;102034.81;;;13.66;100.00
54822;BME280;41299;43.546;16.426;2022-11-15T08:12:11;102047.84;;;13.72;100.00
54822;BME280;41299;43.546;16.426;2022-11-15T08:14:36;102052.97;;;13.68;100.00
54822;BME280;41299;43.546;16.426;2022-11-15T08:17:01;102051.22;;;13.65;100.00
54822;BME280;41299;43.546;16.426;2022-11-15T08:19:28;102056.44;;;13.67;100.00
54822;BME280;41299;43.546;16.426;2022-11-15T08:21:53;102052.97;;;13.64;100.00
54822;BME280;41299;43.546;16.426;2022-11-15T08:24:18;102053.91;;;13.73;100.00
54822;BME280;41299;43.546;16.426;2022-11-15T08:26:45;102048.66;;;13.67;100.00
54822;BME280;41299;43.546;16.426;2022-11-15T08:29:10;102052.25;;;13.78;100.00
54822;BME280;41299;43.546;16.426;2022-11-15T08:31:36;102055.88;;;13.92;100.00
54822;BME280;41299;43.546;16.426;2022-11-15T08:34:02;102050.81;;;14.02;100.00
54822;BME280;41299;43.546;16.426;2022-11-15T08:36:27;102055.22;;;14.09;100.00
54822;BME280;41299;43.546;16.426;2022-11-15T08:38:52;102058.91;;;14.25;100.00
54822;BME280;41299;43.546;16.426;2022-11-15T08:43:49;102061.59;;;14.36;100.00
54822;BME280;41299;43.546;16.426;2022-11-15T08:46:14;102059.00;;;14.36;100.00
54822;BME280;41299;43.546;16.426;2022-11-15T08:48:42;102054.78;;;14.46;100.00
54822;BME280;41299;43.546;16.426;2022-11-15T08:51:08;102048.78;;;14.50;100.00
54822;BME280;41299;43.546;16.426;2022-11-15T08:53:33;102047.13;;;14.60;100.00
54822;BME280;41299;43.546;16.426;2022-11-15T08:55:59;102051.50;;;14.64;100.00
54822;BME280;41299;43.546;16.426;2022-11-15T08:58:24;102048.06;;;14.67;100.00
54822;BME280;41299;43.546;16.426;2022-11-15T09:00:49;102049.91;;;14.76;100.00
54822;BME280;41299;43.546;16.426;2022-11-15T09:03:15;102049.97;;;14.79;100.00
54822;BME280;41299;43.546;16.426;2022-11-15T09:05:40;102037.03;;;14.85;100.00
54822;BME280;41299;43.546;16.426;2022-11-15T09:08:05;102037.06;;;14.90;100.00
54822;BME280;41299;43.546;16.426;2022-11-15T09:10:31;102036.16;;;14.89;100.00
54822;BME280;41299;43.546;16.426;2022-11-15T09:12:56;102025.84;;;14.95;100.00
54822;BME280;41299;43.546;16.426;2022-11-15T09:15:22;102030.09;;;14.87;100.00
54822;BME280;41299;43.546;16.426;2022-11-15T09:17:47;102031.88;;;14.90;100.00
54822;BME280;41299;43.546;16.426;2022-11-15T09:20:13;102030.16;;;14.95;100.00
54822;BME280;41299;43.546;16.426;2022-11-15T09:22:38;102036.28;;;15.02;100.00
54822;BME280;41299;43.546;16.426;2022-11-15T09:25:04;102032.84;;;15.04;100.00
54822;BME280;41299;43.546;16.426;2022-11-15T09:27:29;102024.19;;;15.04;100.00
54822;BME280;41299;43.546;16.426;2022-11-15T09:29:55;102025.03;;;15.01;100.00
54822;BME280;41299;43.546;16.426;2022-11-15T09:32:20;102027.63;;;15.03;100.00
54822;BME280;41299;43.546;16.426;2022-11-15T09:34:47;102027.56;;;14.93;100.00
54822;BME280;41299;43.546;16.426;2022-11-15T09:37:13;102020.72;;;15.02;100.00
54822;BME280;41299;43.546;16.426;2022-11-15T09:39:38;102023.28;;;14.98;100.00
54822;BME280;41299;43.546;16.426;2022-11-15T09:44:38;102008.63;;;15.08;100.00
54822;BME280;41299;43.546;16.426;2022-11-15T09:49:31;102015.56;;;15.11;100.00
54822;BME280;41299;43.546;16.426;2022-11-15T09:51:57;102006.91;;;15.12;100.00
54822;BME280;41299;43.546;16.426;2022-11-15T09:56:51;102005.25;;;15.20;100.00
54822;BME280;41299;43.546;16.426;2022-11-15T09:59:22;102001.78;;;15.23;100.00
54822;BME280;41299;43.546;16.426;2022-11-15T10:04:25;101995.78;;;15.32;100.00
54822;BME280;41299;43.546;16.426;2022-11-15T10:06:55;101988.78;;;15.20;100.00
54822;BME280;41299;43.546;16.426;2022-11-15T10:09:24;101975.84;;;15.34;100.00
54822;BME280;41299;43.546;16.426;2022-11-15T10:11:51;101980.25;;;15.44;100.00
54822;BME280;41299;43.546;16.426;2022-11-15T10:14:18;101977.69;;;15.47;100.00
54822;BME280;41299;43.546;16.426;2022-11-15T10:17:03;101975.03;;;15.38;100.00
54822;BME280;41299;43.546;16.426;2022-11-15T10:24:34;101966.53;;;15.75;100.00
54822;BME280;41299;43.546;16.426;2022-11-15T10:26:59;101950.91;;;15.79;100.00
54822;BME280;41299;43.546;16.426;2022-11-15T10:29:25;101936.28;;;15.94;100.00
54822;BME280;41299;43.546;16.426;2022-11-15T10:31:51;101932.81;;;16.01;100.00
54822;BME280;41299;43.546;16.426;2022-11-15T10:34:17;101928.44;;;15.92;100.00
54822;BME280;41299;43.546;16.426;2022-11-15T10:36:58;101923.28;;;16.08;100.00
54822;BME280;41299;43.546;16.426;2022-11-15T10:39:24;101916.31;;;16.07;100.00
54822;BME280;41299;43.546;16.426;2022-11-15T10:41:52;101912.88;;;16.00;100.00
54822;BME280;41299;43.546;16.426;2022-11-15T10:46:47;101908.44;;;15.87;100.00
54822;BME280;41299;43.546;16.426;2022-11-15T10:49:19;101906.78;;;16.00;100.00
54822;BME280;41299;43.546;16.426;2022-11-15T10:56:51;101885.13;;;16.24;100.00
54822;BME280;41299;43.546;16.426;2022-11-15T10:59:22;101867.75;;;16.26;100.00
54822;BME280;41299;43.546;16.426;2022-11-15T11:01:48;101861.69;;;16.37;100.00
54822;BME280;41299;43.546;16.426;2022-11-15T11:04:14;101859.97;;;16.28;100.00
54822;BME280;41299;43.546;16.426;2022-11-15T11:07:19;101853.91;;;16.19;100.00
54822;BME280;41299;43.546;16.426;2022-11-15T11:09:31;101850.41;;;16.25;100.00
54822;BME280;41299;43.546;16.426;2022-11-15T11:11:57;101850.44;;;16.16;100.00
54822;BME280;41299;43.546;16.426;2022-11-15T11:37:24;101810.47;;;16.48;100.00
54822;BME280;41299;43.546;16.426;2022-11-15T11:45:10;101798.28;;;16.59;100.00
54822;BME280;41299;43.546;16.426;2022-11-15T11:47:46;101795.66;;;16.66;100.00
54822;BME280;41299;43.546;16.426;2022-11-15T11:52:48;101797.44;;;16.54;100.00
54822;BME280;41299;43.546;16.426;2022-11-15T11:55:19;101804.41;;;16.44;100.00
54822;BME280;41299;43.546;16.426;2022-11-15T12:00:25;101792.28;;;16.26;100.00
54822;BME280;41299;43.546;16.426;2022-11-15T12:03:09;101798.38;;;16.11;100.00
54822;BME280;41299;43.546;16.426;2022-11-15T12:05:43;101795.75;;;16.19;100.00
54822;BME280;41299;43.546;16.426;2022-11-15T12:08:27;101795.78;;;16.22;100.00
54822;BME280;41299;43.546;16.426;2022-11-15T12:11:06;101797.53;;;16.11;100.00
54822;BME280;41299;43.546;16.426;2022-11-15T12:13:33;101793.16;;;16.13;100.00
54822;BME280;41299;43.546;16.426;2022-11-15T12:16:12;101794.03;;;16.27;100.00
54822;BME280;41299;43.546;16.426;2022-11-15T12:18:46;101786.22;;;16.19;100.00
54822;BME280;41299;43.546;16.426;2022-11-15T12:21:14;101794.91;;;16.12;100.00
54822;BME280;41299;43.546;16.426;2022-11-15T12:23:46;101796.63;;;16.16;100.00
54822;BME280;41299;43.546;16.426;2022-11-15T12:26:20;101792.31;;;16.15;100.00
54822;BME280;41299;43.546;16.426;2022-11-15T12:28:54;101794.88;;;16.36;100.00
54822;BME280;41299;43.546;16.426;2022-11-15T12:31:24;101787.06;;;16.39;100.00
54822;BME280;41299;43.546;16.426;2022-11-15T12:33:55;101781.88;;;16.29;100.00
54822;BME280;41299;43.546;16.426;2022-11-15T13:19:09;101755.78;;;16.54;100.00
54822;BME280;41299;43.546;16.426;2022-11-15T13:26:53;101741.91;;;16.41;100.00
54822;BME280;41299;43.546;16.426;2022-11-15T13:29:19;101739.31;;;16.41;100.00
54822;BME280;41299;43.546;16.426;2022-11-15T13:31:45;101742.78;;;16.42;100.00
54822;BME280;41299;43.546;16.426;2022-11-15T13:34:17;101742.78;;;16.40;100.00
54822;BME280;41299;43.546;16.426;2022-11-15T13:36:45;101750.63;;;16.45;100.00
54822;BME280;41299;43.546;16.426;2022-11-15T13:39:23;101752.34;;;16.46;100.00
54822;BME280;41299;43.546;16.426;2022-11-15T13:41:50;101744.53;;;16.37;100.00
54822;BME280;41299;43.546;16.426;2022-11-15T13:44:20;101752.34;;;16.40;100.00
54822;BME280;41299;43.546;16.426;2022-11-15T13:46:46;101744.56;;;16.24;100.00
54822;BME280;41299;43.546;16.426;2022-11-15T13:49:11;101738.53;;;16.22;100.00
54822;BME280;41299;43.546;16.426;2022-11-15T13:51:39;101746.31;;;16.24;100.00
54822;BME280;41299;43.546;16.426;2022-11-15T13:56:52;101735.94;;;16.05;100.00
54822;BME280;41299;43.546;16.426;2022-11-15T14:01:51;101755.88;;;16.11;100.00
54822;BME280;41299;43.546;16.426;2022-11-15T14:04:18;101748.94;;;16.08;100.00
54822;BME280;41299;43.546;16.426;2022-11-15T14:06:48;101747.19;;;16.09;100.00
54822;BME280;41299;43.546;16.426;2022-11-15T14:09:31;101745.50;;;16.04;100.00
54822;BME280;41299;43.546;16.426;2022-11-15T14:12:00;101748.94;;;16.06;100.00
54822;BME280;41299;43.546;16.426;2022-11-15T14:14:27;101749.81;;;16.04;100.00
54822;BME280;41299;43.546;16.426;2022-11-15T14:17:00;101751.56;;;16.02;100.00
54822;BME280;41299;43.546;16.426;2022-11-15T14:24:35;101745.47;;;15.81;100.00
54822;BME280;41299;43.546;16.426;2022-11-15T14:29:44;101752.38;;;15.76;100.00
54822;BME280;41299;43.546;16.426;2022-11-15T14:34:38;101754.13;;;15.72;100.00
54822;BME280;41299;43.546;16.426;2022-11-15T14:37:03;101748.06;;;15.69;100.00
54822;BME280;41299;43.546;16.426;2022-11-15T14:39:29;101751.53;;;15.68;100.00
54822;BME280;41299;43.546;16.426;2022-11-15T14:41:54;101743.72;;;15.64;100.00
54822;BME280;41299;43.546;16.426;2022-11-15T14:44:20;101742.88;;;15.62;100.00
54822;BME280;41299;43.546;16.426;2022-11-15T14:46:46;101744.59;;;15.62;100.00
54822;BME280;41299;43.546;16.426;2022-11-15T14:49:13;101741.13;;;15.60;100.00
54822;BME280;41299;43.546;16.426;2022-11-15T14:51:39;101732.44;;;15.53;100.00
54822;BME280;41299;43.546;16.426;2022-11-15T14:54:04;101737.63;;;15.47;100.00
54822;BME280;41299;43.546;16.426;2022-11-15T14:56:30;101728.13;;;15.47;100.00
54822;BME280;41299;43.546;16.426;2022-11-15T14:58:55;101725.53;;;15.47;100.00
54822;BME280;41299;43.546;16.426;2022-11-15T15:01:24;101723.78;;;15.49;100.00
54822;BME280;41299;43.546;16.426;2022-11-15T15:03:50;101720.31;;;15.46;100.00
54822;BME280;41299;43.546;16.426;2022-11-15T15:06:17;101717.69;;;15.41;100.00
54822;BME280;41299;43.546;16.426;2022-11-15T15:08:42;101714.25;;;15.36;100.00
54822;BME280;41299;43.546;16.426;2022-11-15T15:11:13;101703.84;;;15.33;100.00
54822;BME280;41299;43.546;16.426;2022-11-15T15:13:39;101702.97;;;15.29;100.00
54822;BME280;41299;43.546;16.426;2022-11-15T15:16:04;101698.63;;;15.26;100.00
54822;BME280;41299;43.546;16.426;2022-11-15T15:18:30;101698.63;;;15.22;100.00
54822;BME280;41299;43.546;16.426;2022-11-15T15:20:56;101690.78;;;15.09;100.00
54822;BME280;41299;43.546;16.426;2022-11-15T15:23:24;101695.13;;;15.07;100.00
54822;BME280;41299;43.546;16.426;2022-11-15T15:25:51;101695.13;;;15.03;100.00
54822;BME280;41299;43.546;16.426;2022-11-15T15:28:17;101694.22;;;14.94;100.00
54822;BME280;41299;43.546;16.426;2022-11-15T15:30:43;101695.97;;;14.98;100.00